• Join FlightAware (Why Join?)
  • Login
  • US Flag 
01:02AM EDT


 

Airport Tracker/Info


-or-


 

Live Flight TrackerFlight Track Log ✈ SWA470 ✈ 06-Jul-2014 ✈ KTPA - KBNA

Flight Track Log - Related Links

Times and Time Zones

All times are in EDT time to prevent confusion due to time zone crossing. See the SWA470 flight status page for this flight to view local times or setup timezone preferences in your user account.

Time Position Orientation Groundspeed Altitude Reporting Facility
EDT Latitude Longitude Course Direction KTS MPH feet Rate Location/Type
09:01AM 27.9667 -82.5500 North 157 181 800  Level Tampa TRACON
09:02AM 27.9333 -82.5500 180° South 168 193 1,900 2,040 Climbing Tampa TRACON
09:04AM 27.9569 -82.6114 294° West 243 280 6,200 2,520 Climbing Miami Center
09:05AM 28.0381 -82.6161 357° North 278 320 9,600 3,000 Climbing Miami Center
09:06AM 28.1497 -82.6242 356° North 281 323 12,700 2,880 Climbing Jacksonville Center
09:07AM 28.5534 -82.8000 North  Level FlightAware Approximate
09:07AM 28.2497 -82.6428 351° North 324 373 15,800  Level Jacksonville Center
09:08AM 28.3481 -82.6875 338° Northwest 351 404 18,500 2,700 Climbing Jacksonville Center
09:09AM 28.4525 -82.7203 345° North 375 432 21,200 2,700 Climbing Jacksonville Center
09:10AM 28.5483 -82.7839 330° Northwest 388 447 24,000 2,820 Climbing Jacksonville Center
09:11AM 28.6383 -82.8547 325° Northwest 398 458 26,900 2,220 Climbing Jacksonville Center
09:12AM 28.7364 -82.9044 336° Northwest 393 452 28,500 1,260 Climbing Jacksonville Center
09:13AM 28.8511 -82.9447 343° North 397 457 29,500 1,140 Climbing Jacksonville Center
09:14AM 28.9700 -82.9897 342° North 423 487 30,800 1,560 Climbing Jacksonville Center
09:15AM 29.0953 -83.0353 342° North 451 519 32,700 1,560 Climbing Jacksonville Center
09:16AM 29.2183 -83.0733 345° North 456 525 34,000 600 Climbing Jacksonville Center
09:17AM 29.3500 -83.0664 North 456 525 34,000 300 Level Jacksonville Center
09:18AM 29.4772 -83.0739 357° North 461 531 34,600 1,020 Climbing Jacksonville Center
09:19AM 29.6044 -83.1172 344° North 461 531 36,100 1,380 Climbing Jacksonville Center
09:20AM 29.7214 -83.1556 344° North 461 531 37,500 1,260 Climbing Jacksonville Center
09:21AM 29.8339 -83.1869 346° North 453 521 38,600 1,020 Climbing Jacksonville Center
09:22AM 29.9550 -83.2233 345° North 447 514 39,600 660 Climbing Jacksonville Center
09:23AM 30.0906 -83.2669 344° North 452 520 40,000 180 Climbing Jacksonville Center
09:24AM 30.2136 -83.3061 345° North 457 526 40,000  Level Jacksonville Center
09:25AM 30.3347 -83.3450 345° North 452 520 40,000  Level Jacksonville Center
09:26AM 30.4578 -83.3842 345° North 452 520 40,000  Level Jacksonville Center
09:27AM 30.5786 -83.4211 345° North 452 520 40,000  Level Jacksonville Center
09:28AM 30.6994 -83.4603 344° North 452 520 40,000  Level Jacksonville Center
09:29AM 30.8206 -83.4972 345° North 452 520 40,000  Level Jacksonville Center
09:30AM 30.9267 -83.5367 342° North 445 512 40,000  Level Jacksonville Center
09:31AM 31.0497 -83.5739 345° North 445 512 40,000  Level Jacksonville Center
09:32AM 31.1728 -83.6136 345° North 445 512 40,000  Level Jacksonville Center
09:33AM 31.2978 -83.6561 344° North 456 525 40,000  Level Jacksonville Center
09:34AM 31.4292 -83.6983 345° North 456 525 40,000  Level Jacksonville Center
09:36AM 31.7047 -83.7922 344° North 456 525 40,000  Level Atlanta Center
09:37AM 31.8361 -83.8336 345° North 462 532 40,000  Level Atlanta Center
09:38AM 31.9553 -83.8725 345° North 462 532 40,000  Level Atlanta Center
09:39AM 32.0742 -83.9114 345° North 455 524 40,000  Level Atlanta Center
09:40AM 32.1975 -83.9531 344° North 449 517 40,000  Level Atlanta Center
09:41AM 32.3186 -83.9922 345° North 449 517 40,000  Level Atlanta Center
09:42AM 32.4375 -84.0339 344° North 449 517 40,000  Level Atlanta Center
09:43AM 32.5586 -84.0758 344° North 449 517 40,000  Level Atlanta Center
09:44AM 32.6775 -84.1178 343° North 444 511 40,000  Level Atlanta Center
09:45AM 32.7922 -84.1697 339° North 444 511 40,000  Level Atlanta Center
09:46AM 32.8944 -84.2169 339° North 444 511 40,000  Level Atlanta Center
09:47AM 33.0114 -84.2717 339° North 444 511 40,000  Level Atlanta Center
09:48AM 33.1281 -84.3192 341° North 444 511 40,000  Level Atlanta Center
09:49AM 33.2469 -84.3742 339° North 451 519 40,000  Level Atlanta Center
09:50AM 33.3617 -84.4244 340° North 446 513 40,000  Level Atlanta Center
09:51AM 33.4783 -84.4772 339° North 446 513 40,000  Level Atlanta Center
09:52AM 33.6033 -84.5350 339° North 441 507 40,000  Level Atlanta Center
09:53AM 33.7200 -84.5858 340° North 441 507 40,000  Level Atlanta Center
09:54AM 33.8325 -84.6364 340° North 441 507 40,000  Level Atlanta Center
09:55AM 33.9492 -84.6900 339° North 436 502 40,000  Level Atlanta Center
09:56AM 34.0636 -84.7433 339° North 436 502 40,000 -240 Level Atlanta Center
09:57AM 34.1822 -84.7997 339° North 443 510 39,600 -720 Descending Atlanta Center
09:58AM 34.2967 -84.8508 340° North 443 510 38,600 -1,020 Descending Atlanta Center
09:59AM 34.4131 -84.9050 339° North 443 510 37,600 -960 Descending Atlanta Center
10:00AM 34.5297 -84.9567 340° North 448 516 36,700 -960 Descending Atlanta Center
10:01AM 34.6461 -85.0133 338° Northwest 448 516 35,700 -900 Descending Atlanta Center
10:02AM 34.7375 -85.0803 329° Northwest 436 502 34,900 -960 Descending Atlanta Center
10:03AM 34.8431 -85.1625 327° Northwest 436 502 33,800 -1,620 Descending Atlanta Center
10:04AM 34.9189 -85.2194 328° Northwest 446 513 32,100 -3,480 Descending Memphis Center
10:05AM 35.0253 -85.3025 327° Northwest 446 513 27,700 -3,660 Descending Memphis Center
10:06AM 35.1342 -85.3861 328° Northwest 454 522 24,600 -2,160 Descending Memphis Center
10:07AM 35.2403 -85.5078 317° Northwest 442 509 23,300 -1,200 Descending Memphis Center
10:08AM 35.3206 -85.6119 313° West 425 489 22,200 -1,080 Descending Memphis Center
10:09AM 35.3967 -85.7086 314° West 403 464 21,100 -1,080 Descending Memphis Center
10:10AM 35.4683 -85.8019 313° West 380 437 20,000 -1,200 Descending Memphis Center
10:11AM 35.5394 -85.8925 314° West 374 430 18,700 -1,560 Descending Memphis Center
10:12AM 35.6069 -85.9814 313° West 360 414 16,800 -2,040 Descending Memphis Center
10:13AM 35.6761 -86.0753 312° West 351 404 14,600 -2,100 Descending Memphis Center
10:14AM 35.7417 -86.1625 313° West 350 403 12,600 -1,980 Descending Memphis Center
10:15AM 35.8061 -86.2483 313° West 342 394 10,600 -1,260 Descending Memphis Center
10:16AM 35.8661 -86.3261 314° West 318 366 10,000 -1,020 Descending Memphis Center
10:17AM 35.9197 -86.3972 313° West 287 330 8,600 -1,500 Descending Memphis Center
10:18AM 35.9825 -86.4783 314° West 280 322 7,000 -1,260 Descending Memphis Center
10:19AM 36.0325 -86.5458 312° West 269 310 6,100 -960 Descending Memphis Center
10:20AM 36.0925 -86.5667 344° North 262 302 5,100 -840 Descending Memphis Center
10:21AM 36.1567 -86.5419 17° North 244 281 4,400 -960 Descending Memphis Center
10:22AM 36.2111 -86.5586 346° North 224 258 3,200 -1,080 Descending Memphis Center
10:24AM 36.2108 -86.6169 270° West 177 204 2,200 -840 Descending Memphis Center
10:25AM 36.1797 -86.6428 214° Southwest 145 167 1,500 -780 Descending Memphis Center
10:26AM 36.1361 -86.6572 195° South 138 159 600 -900 Descending Memphis Center
10:28AM 36.1167 -86.6667 208° Southwest  Level FlightAware Approximate